sensor_id;sensor_type;location;lat;lon;timestamp;P1;durP1;ratioP1;P2;durP2;ratioP2
41943;SDS011;27636;52.610;13.244;2023-02-04T00:04:29;2.13;;;1.40;;
41943;SDS011;27636;52.610;13.244;2023-02-04T00:09:33;3.35;;;1.48;;
41943;SDS011;27636;52.610;13.244;2023-02-04T00:14:38;3.83;;;1.60;;
41943;SDS011;27636;52.610;13.244;2023-02-04T00:19:41;2.92;;;1.10;;
41943;SDS011;27636;52.610;13.244;2023-02-04T00:24:44;3.85;;;1.80;;
41943;SDS011;27636;52.610;13.244;2023-02-04T00:29:53;1.48;;;0.88;;
41943;SDS011;27636;52.610;13.244;2023-02-04T00:34:56;3.22;;;1.48;;
41943;SDS011;27636;52.610;13.244;2023-02-04T00:40:00;3.75;;;1.08;;
41943;SDS011;27636;52.610;13.244;2023-02-04T00:45:06;3.75;;;1.05;;
41943;SDS011;27636;52.610;13.244;2023-02-04T00:50:11;1.85;;;1.02;;
41943;SDS011;27636;52.610;13.244;2023-02-04T00:55:15;10.85;;;1.10;;
41943;SDS011;27636;52.610;13.244;2023-02-04T01:00:21;1.85;;;0.68;;
41943;SDS011;27636;52.610;13.244;2023-02-04T01:05:24;5.20;;;0.85;;
41943;SDS011;27636;52.610;13.244;2023-02-04T01:10:28;2.72;;;1.08;;
41943;SDS011;27636;52.610;13.244;2023-02-04T01:15:33;2.03;;;0.60;;
41943;SDS011;27636;52.610;13.244;2023-02-04T01:25:40;4.35;;;1.40;;
41943;SDS011;27636;52.610;13.244;2023-02-04T01:30:45;0.95;;;0.50;;
41943;SDS011;27636;52.610;13.244;2023-02-04T01:35:48;6.05;;;1.80;;
41943;SDS011;27636;52.610;13.244;2023-02-04T01:40:52;0.65;;;0.60;;
41943;SDS011;27636;52.610;13.244;2023-02-04T01:45:58;2.03;;;1.00;;
41943;SDS011;27636;52.610;13.244;2023-02-04T01:51:03;0.80;;;0.65;;
41943;SDS011;27636;52.610;13.244;2023-02-04T01:56:10;3.80;;;0.47;;
41943;SDS011;27636;52.610;13.244;2023-02-04T02:01:33;0.93;;;0.60;;
41943;SDS011;27636;52.610;13.244;2023-02-04T02:06:39;2.58;;;0.57;;
41943;SDS011;27636;52.610;13.244;2023-02-04T02:11:47;2.38;;;0.73;;
41943;SDS011;27636;52.610;13.244;2023-02-04T02:16:52;2.30;;;0.73;;
41943;SDS011;27636;52.610;13.244;2023-02-04T02:21:57;3.50;;;1.33;;
41943;SDS011;27636;52.610;13.244;2023-02-04T02:27:07;7.20;;;0.90;;
41943;SDS011;27636;52.610;13.244;2023-02-04T02:32:13;0.75;;;0.45;;
41943;SDS011;27636;52.610;13.244;2023-02-04T02:37:17;0.75;;;0.47;;
41943;SDS011;27636;52.610;13.244;2023-02-04T02:42:22;1.52;;;0.50;;
41943;SDS011;27636;52.610;13.244;2023-02-04T02:52:30;0.47;;;0.47;;
41943;SDS011;27636;52.610;13.244;2023-02-04T02:57:35;1.42;;;0.77;;
41943;SDS011;27636;52.610;13.244;2023-02-04T03:02:38;0.50;;;0.50;;
41943;SDS011;27636;52.610;13.244;2023-02-04T03:07:42;1.83;;;0.80;;
41943;SDS011;27636;52.610;13.244;2023-02-04T03:12:47;2.20;;;0.50;;
41943;SDS011;27636;52.610;13.244;2023-02-04T03:17:51;1.58;;;0.70;;
41943;SDS011;27636;52.610;13.244;2023-02-04T03:22:58;0.85;;;0.55;;
41943;SDS011;27636;52.610;13.244;2023-02-04T03:28:04;1.52;;;0.85;;
41943;SDS011;27636;52.610;13.244;2023-02-04T03:33:08;0.40;;;0.40;;
41943;SDS011;27636;52.610;13.244;2023-02-04T03:38:11;4.55;;;1.35;;
41943;SDS011;27636;52.610;13.244;2023-02-04T03:43:16;1.55;;;0.98;;
41943;SDS011;27636;52.610;13.244;2023-02-04T03:48:20;0.85;;;0.50;;
41943;SDS011;27636;52.610;13.244;2023-02-04T03:53:24;0.32;;;0.32;;
41943;SDS011;27636;52.610;13.244;2023-02-04T03:58:28;1.35;;;0.80;;
41943;SDS011;27636;52.610;13.244;2023-02-04T04:03:31;1.17;;;0.80;;
41943;SDS011;27636;52.610;13.244;2023-02-04T04:08:35;5.28;;;0.70;;
41943;SDS011;27636;52.610;13.244;2023-02-04T04:13:40;3.22;;;1.10;;
41943;SDS011;27636;52.610;13.244;2023-02-04T04:18:43;3.80;;;0.90;;
41943;SDS011;27636;52.610;13.244;2023-02-04T04:23:46;2.30;;;0.93;;
41943;SDS011;27636;52.610;13.244;2023-02-04T04:28:51;4.50;;;1.38;;
41943;SDS011;27636;52.610;13.244;2023-02-04T04:33:55;4.20;;;1.20;;
41943;SDS011;27636;52.610;13.244;2023-02-04T04:38:58;1.80;;;0.82;;
41943;SDS011;27636;52.610;13.244;2023-02-04T04:44:03;2.53;;;1.35;;
41943;SDS011;27636;52.610;13.244;2023-02-04T04:49:06;1.67;;;1.10;;
41943;SDS011;27636;52.610;13.244;2023-02-04T04:54:10;1.42;;;0.93;;
41943;SDS011;27636;52.610;13.244;2023-02-04T04:59:15;1.75;;;0.82;;
41943;SDS011;27636;52.610;13.244;2023-02-04T05:04:18;3.55;;;0.65;;
41943;SDS011;27636;52.610;13.244;2023-02-04T05:09:22;0.40;;;0.40;;
41943;SDS011;27636;52.610;13.244;2023-02-04T05:14:26;11.88;;;1.58;;
41943;SDS011;27636;52.610;13.244;2023-02-04T05:19:30;1.50;;;1.02;;
41943;SDS011;27636;52.610;13.244;2023-02-04T05:24:33;0.55;;;0.40;;
41943;SDS011;27636;52.610;13.244;2023-02-04T05:29:38;2.72;;;1.30;;
41943;SDS011;27636;52.610;13.244;2023-02-04T05:34:41;0.73;;;0.70;;
41943;SDS011;27636;52.610;13.244;2023-02-04T05:39:45;0.90;;;0.50;;
41943;SDS011;27636;52.610;13.244;2023-02-04T05:44:50;2.38;;;0.68;;
41943;SDS011;27636;52.610;13.244;2023-02-04T05:54:57;1.20;;;0.90;;
41943;SDS011;27636;52.610;13.244;2023-02-04T06:00:02;0.73;;;0.52;;
41943;SDS011;27636;52.610;13.244;2023-02-04T06:05:13;1.40;;;0.65;;
41943;SDS011;27636;52.610;13.244;2023-02-04T06:10:17;0.82;;;0.60;;
41943;SDS011;27636;52.610;13.244;2023-02-04T06:15:24;0.68;;;0.55;;
41943;SDS011;27636;52.610;13.244;2023-02-04T06:20:27;4.72;;;1.40;;
41943;SDS011;27636;52.610;13.244;2023-02-04T06:25:31;2.65;;;0.60;;
41943;SDS011;27636;52.610;13.244;2023-02-04T06:30:36;0.70;;;0.43;;
41943;SDS011;27636;52.610;13.244;2023-02-04T06:35:40;6.53;;;1.13;;
41943;SDS011;27636;52.610;13.244;2023-02-04T06:40:43;2.40;;;0.90;;
41943;SDS011;27636;52.610;13.244;2023-02-04T06:45:48;3.72;;;0.98;;
41943;SDS011;27636;52.610;13.244;2023-02-04T06:50:52;1.40;;;0.95;;
41943;SDS011;27636;52.610;13.244;2023-02-04T06:55:55;4.07;;;1.75;;
41943;SDS011;27636;52.610;13.244;2023-02-04T07:01:00;2.13;;;1.42;;
41943;SDS011;27636;52.610;13.244;2023-02-04T07:06:04;2.05;;;1.33;;
41943;SDS011;27636;52.610;13.244;2023-02-04T07:11:07;6.97;;;2.10;;
41943;SDS011;27636;52.610;13.244;2023-02-04T07:16:12;7.15;;;2.15;;
41943;SDS011;27636;52.610;13.244;2023-02-04T07:21:15;2.03;;;1.20;;
41943;SDS011;27636;52.610;13.244;2023-02-04T07:26:19;6.57;;;1.63;;
41943;SDS011;27636;52.610;13.244;2023-02-04T07:31:24;5.03;;;2.13;;
41943;SDS011;27636;52.610;13.244;2023-02-04T07:36:28;3.40;;;1.60;;
41943;SDS011;27636;52.610;13.244;2023-02-04T07:41:31;4.72;;;1.20;;
41943;SDS011;27636;52.610;13.244;2023-02-04T07:46:36;2.58;;;1.10;;
41943;SDS011;27636;52.610;13.244;2023-02-04T07:51:40;4.93;;;2.28;;
41943;SDS011;27636;52.610;13.244;2023-02-04T07:56:43;1.92;;;1.15;;
41943;SDS011;27636;52.610;13.244;2023-02-04T08:01:48;2.65;;;1.33;;
41943;SDS011;27636;52.610;13.244;2023-02-04T08:06:51;2.45;;;1.23;;
41943;SDS011;27636;52.610;13.244;2023-02-04T08:11:54;3.65;;;1.45;;
41943;SDS011;27636;52.610;13.244;2023-02-04T08:16:59;5.00;;;1.58;;
41943;SDS011;27636;52.610;13.244;2023-02-04T08:22:02;2.85;;;1.63;;
41943;SDS011;27636;52.610;13.244;2023-02-04T08:27:06;2.30;;;1.05;;
41943;SDS011;27636;52.610;13.244;2023-02-04T08:32:10;2.00;;;0.88;;
41943;SDS011;27636;52.610;13.244;2023-02-04T08:37:15;1.40;;;0.80;;
41943;SDS011;27636;52.610;13.244;2023-02-04T08:42:18;2.28;;;1.15;;
41943;SDS011;27636;52.610;13.244;2023-02-04T08:47:23;1.35;;;1.08;;
41943;SDS011;27636;52.610;13.244;2023-02-04T08:52:26;2.67;;;0.75;;
41943;SDS011;27636;52.610;13.244;2023-02-04T08:57:29;5.57;;;1.10;;
41943;SDS011;27636;52.610;13.244;2023-02-04T09:02:34;13.48;;;1.58;;
41943;SDS011;27636;52.610;13.244;2023-02-04T09:07:37;1.60;;;0.90;;
41943;SDS011;27636;52.610;13.244;2023-02-04T09:12:40;4.60;;;1.05;;
41943;SDS011;27636;52.610;13.244;2023-02-04T09:17:45;3.03;;;1.00;;
41943;SDS011;27636;52.610;13.244;2023-02-04T09:27:52;3.38;;;1.05;;
41943;SDS011;27636;52.610;13.244;2023-02-04T09:32:57;2.08;;;0.70;;
41943;SDS011;27636;52.610;13.244;2023-02-04T09:38:00;1.90;;;0.70;;
41943;SDS011;27636;52.610;13.244;2023-02-04T09:43:04;2.17;;;1.05;;
41943;SDS011;27636;52.610;13.244;2023-02-04T09:48:10;2.28;;;0.70;;
41943;SDS011;27636;52.610;13.244;2023-02-04T09:53:17;1.42;;;0.75;;
41943;SDS011;27636;52.610;13.244;2023-02-04T09:58:23;3.20;;;0.80;;
41943;SDS011;27636;52.610;13.244;2023-02-04T10:03:32;1.25;;;0.70;;
41943;SDS011;27636;52.610;13.244;2023-02-04T10:08:38;1.65;;;0.60;;
41943;SDS011;27636;52.610;13.244;2023-02-04T10:13:43;4.93;;;1.02;;
41943;SDS011;27636;52.610;13.244;2023-02-04T10:18:50;1.95;;;0.68;;
41943;SDS011;27636;52.610;13.244;2023-02-04T10:23:54;1.00;;;0.35;;
41943;SDS011;27636;52.610;13.244;2023-02-04T10:28:59;3.50;;;0.60;;
41943;SDS011;27636;52.610;13.244;2023-02-04T10:34:05;1.93;;;0.87;;
41943;SDS011;27636;52.610;13.244;2023-02-04T10:39:14;4.00;;;0.75;;
41943;SDS011;27636;52.610;13.244;2023-02-04T10:44:25;1.35;;;0.63;;
41943;SDS011;27636;52.610;13.244;2023-02-04T10:49:31;0.60;;;0.52;;
41943;SDS011;27636;52.610;13.244;2023-02-04T10:54:36;3.88;;;0.95;;
41943;SDS011;27636;52.610;13.244;2023-02-04T10:59:40;2.15;;;0.82;;
41943;SDS011;27636;52.610;13.244;2023-02-04T11:04:46;2.53;;;0.90;;
41943;SDS011;27636;52.610;13.244;2023-02-04T11:09:50;0.40;;;0.38;;
41943;SDS011;27636;52.610;13.244;2023-02-04T11:14:53;1.23;;;0.65;;
41943;SDS011;27636;52.610;13.244;2023-02-04T11:19:59;1.38;;;0.50;;
41943;SDS011;27636;52.610;13.244;2023-02-04T11:25:31;1.63;;;0.90;;
41943;SDS011;27636;52.610;13.244;2023-02-04T11:30:36;1.80;;;0.80;;
41943;SDS011;27636;52.610;13.244;2023-02-04T11:35:41;5.57;;;0.60;;
41943;SDS011;27636;52.610;13.244;2023-02-04T11:41:02;0.50;;;0.50;;
41943;SDS011;27636;52.610;13.244;2023-02-04T11:46:09;3.23;;;0.50;;
41943;SDS011;27636;52.610;13.244;2023-02-04T11:51:19;2.05;;;0.50;;
41943;SDS011;27636;52.610;13.244;2023-02-04T11:56:26;0.70;;;0.70;;
41943;SDS011;27636;52.610;13.244;2023-02-04T12:01:31;0.57;;;0.55;;
41943;SDS011;27636;52.610;13.244;2023-02-04T12:06:37;2.40;;;0.50;;
41943;SDS011;27636;52.610;13.244;2023-02-04T12:11:50;6.32;;;0.90;;
41943;SDS011;27636;52.610;13.244;2023-02-04T12:16:53;0.32;;;0.30;;
41943;SDS011;27636;52.610;13.244;2023-02-04T12:21:59;3.40;;;0.63;;
41943;SDS011;27636;52.610;13.244;2023-02-04T12:27:02;2.47;;;0.80;;
41943;SDS011;27636;52.610;13.244;2023-02-04T12:32:06;4.20;;;0.60;;
41943;SDS011;27636;52.610;13.244;2023-02-04T12:37:10;0.57;;;0.40;;
41943;SDS011;27636;52.610;13.244;2023-02-04T12:42:14;5.87;;;0.70;;
41943;SDS011;27636;52.610;13.244;2023-02-04T12:47:17;3.30;;;0.70;;
41943;SDS011;27636;52.610;13.244;2023-02-04T12:52:21;0.93;;;0.30;;
41943;SDS011;27636;52.610;13.244;2023-02-04T12:57:25;1.40;;;0.70;;
41943;SDS011;27636;52.610;13.244;2023-02-04T13:02:29;1.33;;;0.43;;
41943;SDS011;27636;52.610;13.244;2023-02-04T13:07:33;3.58;;;0.68;;
41943;SDS011;27636;52.610;13.244;2023-02-04T13:12:37;1.42;;;0.47;;
41943;SDS011;27636;52.610;13.244;2023-02-04T13:17:40;2.72;;;0.68;;
41943;SDS011;27636;52.610;13.244;2023-02-04T13:22:45;3.17;;;0.90;;
41943;SDS011;27636;52.610;13.244;2023-02-04T13:27:48;1.43;;;0.73;;
41943;SDS011;27636;52.610;13.244;2023-02-04T13:32:52;0.55;;;0.40;;
41943;SDS011;27636;52.610;13.244;2023-02-04T13:37:56;1.38;;;0.63;;
41943;SDS011;27636;52.610;13.244;2023-02-04T13:42:59;4.75;;;0.77;;
41943;SDS011;27636;52.610;13.244;2023-02-04T13:48:03;2.55;;;0.40;;
41943;SDS011;27636;52.610;13.244;2023-02-04T13:53:08;1.48;;;0.68;;
41943;SDS011;27636;52.610;13.244;2023-02-04T13:58:12;1.40;;;0.77;;
41943;SDS011;27636;52.610;13.244;2023-02-04T14:03:15;2.33;;;0.95;;
41943;SDS011;27636;52.610;13.244;2023-02-04T14:08:20;4.20;;;0.70;;
41943;SDS011;27636;52.610;13.244;2023-02-04T14:13:23;0.63;;;0.40;;
41943;SDS011;27636;52.610;13.244;2023-02-04T14:18:27;0.80;;;0.55;;
41943;SDS011;27636;52.610;13.244;2023-02-04T14:23:32;0.73;;;0.50;;
41943;SDS011;27636;52.610;13.244;2023-02-04T14:28:36;0.77;;;0.50;;
41943;SDS011;27636;52.610;13.244;2023-02-04T14:33:40;1.25;;;0.50;;
41943;SDS011;27636;52.610;13.244;2023-02-04T14:38:44;3.65;;;1.05;;
41943;SDS011;27636;52.610;13.244;2023-02-04T14:43:48;3.75;;;1.23;;
41943;SDS011;27636;52.610;13.244;2023-02-04T14:48:51;1.05;;;0.65;;
41943;SDS011;27636;52.610;13.244;2023-02-04T14:53:57;2.30;;;1.03;;
41943;SDS011;27636;52.610;13.244;2023-02-04T14:59:00;1.52;;;0.77;;
41943;SDS011;27636;52.610;13.244;2023-02-04T15:04:04;1.48;;;0.70;;
41943;SDS011;27636;52.610;13.244;2023-02-04T15:09:09;3.17;;;1.15;;
41943;SDS011;27636;52.610;13.244;2023-02-04T15:14:12;1.45;;;0.60;;
41943;SDS011;27636;52.610;13.244;2023-02-04T15:19:16;0.75;;;0.47;;
41943;SDS011;27636;52.610;13.244;2023-02-04T15:24:21;1.35;;;0.70;;
41943;SDS011;27636;52.610;13.244;2023-02-04T15:29:25;1.60;;;0.65;;
41943;SDS011;27636;52.610;13.244;2023-02-04T15:34:28;1.30;;;0.80;;
41943;SDS011;27636;52.610;13.244;2023-02-04T15:39:33;1.08;;;0.70;;
41943;SDS011;27636;52.610;13.244;2023-02-04T15:44:38;1.23;;;0.75;;
41943;SDS011;27636;52.610;13.244;2023-02-04T15:49:42;3.65;;;1.30;;
41943;SDS011;27636;52.610;13.244;2023-02-04T15:54:47;1.70;;;0.88;;
41943;SDS011;27636;52.610;13.244;2023-02-04T15:59:50;1.77;;;0.98;;
41943;SDS011;27636;52.610;13.244;2023-02-04T16:04:53;2.55;;;0.80;;
41943;SDS011;27636;52.610;13.244;2023-02-04T16:09:58;1.70;;;0.80;;
41943;SDS011;27636;52.610;13.244;2023-02-04T16:20:06;0.47;;;0.47;;
41943;SDS011;27636;52.610;13.244;2023-02-04T16:25:12;1.58;;;0.93;;
41943;SDS011;27636;52.610;13.244;2023-02-04T16:30:15;1.08;;;0.70;;
41943;SDS011;27636;52.610;13.244;2023-02-04T16:35:19;0.82;;;0.70;;
41943;SDS011;27636;52.610;13.244;2023-02-04T16:40:24;1.65;;;1.10;;
41943;SDS011;27636;52.610;13.244;2023-02-04T16:45:27;0.80;;;0.77;;
41943;SDS011;27636;52.610;13.244;2023-02-04T16:50:31;1.88;;;1.20;;
41943;SDS011;27636;52.610;13.244;2023-02-04T16:55:36;1.13;;;1.03;;
41943;SDS011;27636;52.610;13.244;2023-02-04T17:00:41;2.75;;;1.00;;
41943;SDS011;27636;52.610;13.244;2023-02-04T17:05:45;1.55;;;1.13;;
41943;SDS011;27636;52.610;13.244;2023-02-04T17:10:50;3.55;;;0.93;;
41943;SDS011;27636;52.610;13.244;2023-02-04T17:16:12;4.40;;;0.93;;
41943;SDS011;27636;52.610;13.244;2023-02-04T17:21:16;1.85;;;0.73;;
41943;SDS011;27636;52.610;13.244;2023-02-04T17:26:21;2.45;;;1.27;;
41943;SDS011;27636;52.610;13.244;2023-02-04T17:31:26;1.60;;;1.00;;
41943;SDS011;27636;52.610;13.244;2023-02-04T17:36:29;4.10;;;1.50;;
41943;SDS011;27636;52.610;13.244;2023-02-04T17:41:35;5.63;;;2.78;;
41943;SDS011;27636;52.610;13.244;2023-02-04T17:46:38;3.58;;;1.80;;
41943;SDS011;27636;52.610;13.244;2023-02-04T17:51:42;4.07;;;2.17;;
41943;SDS011;27636;52.610;13.244;2023-02-04T17:56:47;3.65;;;2.17;;
41943;SDS011;27636;52.610;13.244;2023-02-04T18:01:51;3.38;;;1.73;;
41943;SDS011;27636;52.610;13.244;2023-02-04T18:06:55;4.20;;;2.75;;
41943;SDS011;27636;52.610;13.244;2023-02-04T18:12:00;2.70;;;2.03;;
41943;SDS011;27636;52.610;13.244;2023-02-04T18:17:08;3.80;;;1.90;;
41943;SDS011;27636;52.610;13.244;2023-02-04T18:22:14;2.40;;;1.60;;
41943;SDS011;27636;52.610;13.244;2023-02-04T18:27:21;3.15;;;1.77;;
41943;SDS011;27636;52.610;13.244;2023-02-04T18:32:31;13.88;;;2.33;;
41943;SDS011;27636;52.610;13.244;2023-02-04T18:37:41;8.20;;;2.50;;
41943;SDS011;27636;52.610;13.244;2023-02-04T18:42:51;4.82;;;2.13;;
41943;SDS011;27636;52.610;13.244;2023-02-04T18:53:52;4.85;;;2.13;;
41943;SDS011;27636;52.610;13.244;2023-02-04T18:59:01;8.45;;;3.30;;
41943;SDS011;27636;52.610;13.244;2023-02-04T19:09:22;1.77;;;1.08;;
41943;SDS011;27636;52.610;13.244;2023-02-04T19:14:31;0.80;;;0.80;;
41943;SDS011;27636;52.610;13.244;2023-02-04T19:19:38;2.53;;;1.45;;
41943;SDS011;27636;52.610;13.244;2023-02-04T19:24:44;2.22;;;1.17;;
41943;SDS011;27636;52.610;13.244;2023-02-04T19:29:50;2.55;;;2.10;;
41943;SDS011;27636;52.610;13.244;2023-02-04T19:34:58;5.50;;;2.65;;
41943;SDS011;27636;52.610;13.244;2023-02-04T19:40:19;3.00;;;1.80;;
41943;SDS011;27636;52.610;13.244;2023-02-04T19:45:28;2.25;;;1.15;;
41943;SDS011;27636;52.610;13.244;2023-02-04T19:50:32;6.57;;;1.10;;
41943;SDS011;27636;52.610;13.244;2023-02-04T19:55:37;1.98;;;0.98;;
41943;SDS011;27636;52.610;13.244;2023-02-04T20:00:57;3.35;;;1.55;;
41943;SDS011;27636;52.610;13.244;2023-02-04T20:16:55;5.78;;;1.50;;
41943;SDS011;27636;52.610;13.244;2023-02-04T20:22:03;1.05;;;0.77;;
41943;SDS011;27636;52.610;13.244;2023-02-04T20:27:26;1.23;;;0.75;;
41943;SDS011;27636;52.610;13.244;2023-02-04T20:32:37;3.75;;;0.95;;
41943;SDS011;27636;52.610;13.244;2023-02-04T20:37:42;1.48;;;1.10;;
41943;SDS011;27636;52.610;13.244;2023-02-04T20:42:46;3.28;;;1.20;;
41943;SDS011;27636;52.610;13.244;2023-02-04T20:47:54;3.72;;;1.92;;
41943;SDS011;27636;52.610;13.244;2023-02-04T20:53:01;3.08;;;1.67;;
41943;SDS011;27636;52.610;13.244;2023-02-04T20:58:13;2.95;;;1.85;;
41943;SDS011;27636;52.610;13.244;2023-02-04T21:03:22;1.10;;;0.93;;
41943;SDS011;27636;52.610;13.244;2023-02-04T21:08:29;4.20;;;2.20;;
41943;SDS011;27636;52.610;13.244;2023-02-04T21:13:35;3.80;;;1.95;;
41943;SDS011;27636;52.610;13.244;2023-02-04T21:18:41;4.18;;;2.03;;
41943;SDS011;27636;52.610;13.244;2023-02-04T21:23:45;4.13;;;2.17;;
41943;SDS011;27636;52.610;13.244;2023-02-04T21:28:49;6.23;;;2.53;;
41943;SDS011;27636;52.610;13.244;2023-02-04T21:33:54;9.27;;;1.90;;
41943;SDS011;27636;52.610;13.244;2023-02-04T21:38:59;6.72;;;2.45;;
41943;SDS011;27636;52.610;13.244;2023-02-04T21:44:03;3.47;;;2.25;;
41943;SDS011;27636;52.610;13.244;2023-02-04T21:49:08;4.10;;;2.67;;
41943;SDS011;27636;52.610;13.244;2023-02-04T21:54:11;5.47;;;2.35;;
41943;SDS011;27636;52.610;13.244;2023-02-04T21:59:14;5.68;;;2.38;;
41943;SDS011;27636;52.610;13.244;2023-02-04T22:04:21;6.15;;;2.50;;
41943;SDS011;27636;52.610;13.244;2023-02-04T22:09:25;4.20;;;2.65;;
41943;SDS011;27636;52.610;13.244;2023-02-04T22:14:28;7.63;;;3.40;;
41943;SDS011;27636;52.610;13.244;2023-02-04T22:19:51;5.80;;;2.42;;
41943;SDS011;27636;52.610;13.244;2023-02-04T22:24:55;3.47;;;1.83;;
41943;SDS011;27636;52.610;13.244;2023-02-04T22:29:58;3.15;;;1.73;;
41943;SDS011;27636;52.610;13.244;2023-02-04T22:35:06;2.95;;;2.15;;
41943;SDS011;27636;52.610;13.244;2023-02-04T22:40:12;12.23;;;4.00;;
41943;SDS011;27636;52.610;13.244;2023-02-04T22:45:15;4.93;;;2.47;;
41943;SDS011;27636;52.610;13.244;2023-02-04T22:50:20;3.40;;;2.13;;
41943;SDS011;27636;52.610;13.244;2023-02-04T22:55:24;6.93;;;4.03;;
41943;SDS011;27636;52.610;13.244;2023-02-04T23:00:27;11.65;;;5.00;;
41943;SDS011;27636;52.610;13.244;2023-02-04T23:05:32;10.27;;;4.22;;
41943;SDS011;27636;52.610;13.244;2023-02-04T23:10:36;7.85;;;3.95;;
41943;SDS011;27636;52.610;13.244;2023-02-04T23:15:40;8.73;;;4.65;;
41943;SDS011;27636;52.610;13.244;2023-02-04T23:20:46;5.88;;;3.05;;
41943;SDS011;27636;52.610;13.244;2023-02-04T23:25:49;6.80;;;4.45;;
41943;SDS011;27636;52.610;13.244;2023-02-04T23:30:53;8.15;;;4.88;;
41943;SDS011;27636;52.610;13.244;2023-02-04T23:35:58;7.93;;;3.72;;
41943;SDS011;27636;52.610;13.244;2023-02-04T23:41:01;6.13;;;3.42;;
41943;SDS011;27636;52.610;13.244;2023-02-04T23:46:04;8.13;;;4.18;;
41943;SDS011;27636;52.610;13.244;2023-02-04T23:51:10;9.15;;;4.55;;
41943;SDS011;27636;52.610;13.244;2023-02-04T23:56:13;6.50;;;3.70;;
